sensor_id;sensor_type;location;lat;lon;timestamp;temperature;humidity
5972;DHT22;3012;49.944;8.454;2023-08-01T00:00:37;17.60;99.90
5972;DHT22;3012;49.944;8.454;2023-08-01T00:03:07;18.00;99.90
5972;DHT22;3012;49.944;8.454;2023-08-01T00:05:38;17.70;99.90
5972;DHT22;3012;49.944;8.454;2023-08-01T00:08:12;17.80;99.90
5972;DHT22;3012;49.944;8.454;2023-08-01T00:10:44;17.80;99.90
5972;DHT22;3012;49.944;8.454;2023-08-01T00:13:14;17.70;99.90
5972;DHT22;3012;49.944;8.454;2023-08-01T00:15:44;17.90;99.90
5972;DHT22;3012;49.944;8.454;2023-08-01T00:18:33;17.50;99.90
5972;DHT22;3012;49.944;8.454;2023-08-01T00:21:04;17.90;99.90
5972;DHT22;3012;49.944;8.454;2023-08-01T00:23:38;17.90;99.90
5972;DHT22;3012;49.944;8.454;2023-08-01T00:26:10;17.90;99.90
5972;DHT22;3012;49.944;8.454;2023-08-01T00:28:40;17.90;99.90
5972;DHT22;3012;49.944;8.454;2023-08-01T00:31:10;17.80;99.90
5972;DHT22;3012;49.944;8.454;2023-08-01T00:33:40;18.00;99.90
5972;DHT22;3012;49.944;8.454;2023-08-01T00:36:10;18.40;99.90
5972;DHT22;3012;49.944;8.454;2023-08-01T00:38:40;17.90;99.90
5972;DHT22;3012;49.944;8.454;2023-08-01T00:41:12;17.70;99.90
5972;DHT22;3012;49.944;8.454;2023-08-01T00:43:42;18.50;99.90
5972;DHT22;3012;49.944;8.454;2023-08-01T00:46:13;17.90;99.90
5972;DHT22;3012;49.944;8.454;2023-08-01T00:48:43;17.90;99.90
5972;DHT22;3012;49.944;8.454;2023-08-01T00:51:13;17.50;99.90
5972;DHT22;3012;49.944;8.454;2023-08-01T00:53:43;17.90;99.90
5972;DHT22;3012;49.944;8.454;2023-08-01T00:56:16;17.90;99.90
5972;DHT22;3012;49.944;8.454;2023-08-01T00:58:46;17.90;99.90
5972;DHT22;3012;49.944;8.454;2023-08-01T01:01:16;17.70;99.90
5972;DHT22;3012;49.944;8.454;2023-08-01T01:03:46;17.90;99.90
5972;DHT22;3012;49.944;8.454;2023-08-01T01:06:20;18.00;99.90
5972;DHT22;3012;49.944;8.454;2023-08-01T01:08:52;17.40;99.90
5972;DHT22;3012;49.944;8.454;2023-08-01T01:11:25;17.50;99.90
5972;DHT22;3012;49.944;8.454;2023-08-01T01:13:56;17.60;99.90
5972;DHT22;3012;49.944;8.454;2023-08-01T01:16:25;17.70;99.90
5972;DHT22;3012;49.944;8.454;2023-08-01T01:18:56;17.10;99.90
5972;DHT22;3012;49.944;8.454;2023-08-01T01:21:27;17.20;99.90
5972;DHT22;3012;49.944;8.454;2023-08-01T01:23:58;17.20;99.90
5972;DHT22;3012;49.944;8.454;2023-08-01T01:26:31;17.70;99.90
5972;DHT22;3012;49.944;8.454;2023-08-01T01:29:03;17.50;99.90
5972;DHT22;3012;49.944;8.454;2023-08-01T01:31:33;17.90;99.90
5972;DHT22;3012;49.944;8.454;2023-08-01T01:34:04;17.70;99.90
5972;DHT22;3012;49.944;8.454;2023-08-01T01:36:36;18.00;99.90
5972;DHT22;3012;49.944;8.454;2023-08-01T01:39:06;17.70;99.90
5972;DHT22;3012;49.944;8.454;2023-08-01T01:41:36;17.70;99.90
5972;DHT22;3012;49.944;8.454;2023-08-01T01:44:06;17.80;99.90
5972;DHT22;3012;49.944;8.454;2023-08-01T01:46:36;17.70;99.90
5972;DHT22;3012;49.944;8.454;2023-08-01T01:49:07;17.50;99.90
5972;DHT22;3012;49.944;8.454;2023-08-01T01:51:39;17.80;99.90
5972;DHT22;3012;49.944;8.454;2023-08-01T01:54:09;17.80;99.90
5972;DHT22;3012;49.944;8.454;2023-08-01T01:56:40;17.80;99.90
5972;DHT22;3012;49.944;8.454;2023-08-01T01:59:10;17.90;99.90
5972;DHT22;3012;49.944;8.454;2023-08-01T02:01:40;17.80;99.90
5972;DHT22;3012;49.944;8.454;2023-08-01T02:04:10;17.80;99.90
5972;DHT22;3012;49.944;8.454;2023-08-01T02:06:42;17.80;99.90
5972;DHT22;3012;49.944;8.454;2023-08-01T02:09:12;17.70;99.90
5972;DHT22;3012;49.944;8.454;2023-08-01T02:11:42;17.60;99.90
5972;DHT22;3012;49.944;8.454;2023-08-01T02:14:13;18.10;99.90
5972;DHT22;3012;49.944;8.454;2023-08-01T02:16:44;17.80;99.90
5972;DHT22;3012;49.944;8.454;2023-08-01T02:19:14;17.60;99.90
5972;DHT22;3012;49.944;8.454;2023-08-01T02:21:46;18.10;99.90
5972;DHT22;3012;49.944;8.454;2023-08-01T02:24:16;17.90;99.90
5972;DHT22;3012;49.944;8.454;2023-08-01T02:26:47;17.80;99.90
5972;DHT22;3012;49.944;8.454;2023-08-01T02:29:17;17.60;99.90
5972;DHT22;3012;49.944;8.454;2023-08-01T02:31:47;17.60;99.90
5972;DHT22;3012;49.944;8.454;2023-08-01T02:34:17;17.90;99.90
5972;DHT22;3012;49.944;8.454;2023-08-01T02:36:49;17.50;99.90
5972;DHT22;3012;49.944;8.454;2023-08-01T02:39:20;17.40;99.90
5972;DHT22;3012;49.944;8.454;2023-08-01T02:41:50;18.10;99.90
5972;DHT22;3012;49.944;8.454;2023-08-01T02:44:20;17.80;99.90
5972;DHT22;3012;49.944;8.454;2023-08-01T02:46:50;17.40;99.90
5972;DHT22;3012;49.944;8.454;2023-08-01T02:49:20;17.80;99.90
5972;DHT22;3012;49.944;8.454;2023-08-01T02:51:52;17.80;99.90
5972;DHT22;3012;49.944;8.454;2023-08-01T02:54:22;17.80;99.90
5972;DHT22;3012;49.944;8.454;2023-08-01T02:56:52;17.80;99.90
5972;DHT22;3012;49.944;8.454;2023-08-01T02:59:22;17.80;99.90
5972;DHT22;3012;49.944;8.454;2023-08-01T03:01:53;17.90;99.90
5972;DHT22;3012;49.944;8.454;2023-08-01T03:04:22;17.50;99.90
5972;DHT22;3012;49.944;8.454;2023-08-01T03:07:13;17.90;99.90
5972;DHT22;3012;49.944;8.454;2023-08-01T03:09:44;18.10;99.90
5972;DHT22;3012;49.944;8.454;2023-08-01T03:12:14;17.90;99.90
5972;DHT22;3012;49.944;8.454;2023-08-01T03:14:44;17.80;99.90
5972;DHT22;3012;49.944;8.454;2023-08-01T03:17:15;17.90;99.90
5972;DHT22;3012;49.944;8.454;2023-08-01T03:19:46;17.80;99.90
5972;DHT22;3012;49.944;8.454;2023-08-01T03:22:18;17.90;99.90
5972;DHT22;3012;49.944;8.454;2023-08-01T03:24:48;17.70;99.90
5972;DHT22;3012;49.944;8.454;2023-08-01T03:27:18;17.90;99.90
5972;DHT22;3012;49.944;8.454;2023-08-01T03:29:49;17.90;99.90
5972;DHT22;3012;49.944;8.454;2023-08-01T03:32:19;17.80;99.90
5972;DHT22;3012;49.944;8.454;2023-08-01T03:34:49;17.90;99.90
5972;DHT22;3012;49.944;8.454;2023-08-01T03:37:21;17.90;99.90
5972;DHT22;3012;49.944;8.454;2023-08-01T03:39:51;17.90;99.90
5972;DHT22;3012;49.944;8.454;2023-08-01T03:42:21;17.90;99.90
5972;DHT22;3012;49.944;8.454;2023-08-01T03:44:52;17.80;99.90
5972;DHT22;3012;49.944;8.454;2023-08-01T03:47:22;18.50;99.90
5972;DHT22;3012;49.944;8.454;2023-08-01T03:49:52;17.90;99.90
5972;DHT22;3012;49.944;8.454;2023-08-01T03:52:23;17.30;99.90
5972;DHT22;3012;49.944;8.454;2023-08-01T03:54:55;17.80;99.90
5972;DHT22;3012;49.944;8.454;2023-08-01T03:57:25;17.40;99.90
5972;DHT22;3012;49.944;8.454;2023-08-01T03:59:55;17.40;99.90
5972;DHT22;3012;49.944;8.454;2023-08-01T04:02:25;18.00;99.90
5972;DHT22;3012;49.944;8.454;2023-08-01T04:04:55;17.80;99.90
5972;DHT22;3012;49.944;8.454;2023-08-01T04:07:27;17.80;99.90
5972;DHT22;3012;49.944;8.454;2023-08-01T04:09:57;17.80;99.90
5972;DHT22;3012;49.944;8.454;2023-08-01T04:12:28;17.80;99.90
5972;DHT22;3012;49.944;8.454;2023-08-01T04:14:57;17.50;99.90
5972;DHT22;3012;49.944;8.454;2023-08-01T04:17:28;17.60;99.90
5972;DHT22;3012;49.944;8.454;2023-08-01T04:19:59;17.90;99.90
5972;DHT22;3012;49.944;8.454;2023-08-01T04:22:31;18.00;99.90
5972;DHT22;3012;49.944;8.454;2023-08-01T04:25:02;17.90;99.90
5972;DHT22;3012;49.944;8.454;2023-08-01T04:27:32;17.80;99.90
5972;DHT22;3012;49.944;8.454;2023-08-01T04:30:03;18.00;99.90
5972;DHT22;3012;49.944;8.454;2023-08-01T04:32:33;17.70;99.90
5972;DHT22;3012;49.944;8.454;2023-08-01T04:35:04;17.80;99.90
5972;DHT22;3012;49.944;8.454;2023-08-01T04:37:36;17.90;99.90
5972;DHT22;3012;49.944;8.454;2023-08-01T04:40:07;17.50;99.90
5972;DHT22;3012;49.944;8.454;2023-08-01T04:42:37;17.80;99.90
5972;DHT22;3012;49.944;8.454;2023-08-01T04:45:08;17.80;99.90
5972;DHT22;3012;49.944;8.454;2023-08-01T04:47:38;17.60;99.90
5972;DHT22;3012;49.944;8.454;2023-08-01T04:50:09;17.70;99.90
5972;DHT22;3012;49.944;8.454;2023-08-01T04:52:40;17.90;99.90
5972;DHT22;3012;49.944;8.454;2023-08-01T04:55:11;17.90;99.90
5972;DHT22;3012;49.944;8.454;2023-08-01T04:57:41;17.80;99.90
5972;DHT22;3012;49.944;8.454;2023-08-01T05:00:13;17.20;99.90
5972;DHT22;3012;49.944;8.454;2023-08-01T05:02:43;17.60;99.90
5972;DHT22;3012;49.944;8.454;2023-08-01T05:05:13;17.80;99.90
5972;DHT22;3012;49.944;8.454;2023-08-01T05:07:46;17.20;99.90
5972;DHT22;3012;49.944;8.454;2023-08-01T05:10:16;17.70;99.90
5972;DHT22;3012;49.944;8.454;2023-08-01T05:12:47;17.80;99.90
5972;DHT22;3012;49.944;8.454;2023-08-01T05:15:17;17.70;99.90
5972;DHT22;3012;49.944;8.454;2023-08-01T05:17:48;17.60;99.90
5972;DHT22;3012;49.944;8.454;2023-08-01T05:20:18;17.70;99.90
5972;DHT22;3012;49.944;8.454;2023-08-01T05:22:52;17.70;99.90
5972;DHT22;3012;49.944;8.454;2023-08-01T05:25:24;17.70;99.90
5972;DHT22;3012;49.944;8.454;2023-08-01T05:27:58;17.70;99.90
5972;DHT22;3012;49.944;8.454;2023-08-01T05:30:31;17.70;99.90
5972;DHT22;3012;49.944;8.454;2023-08-01T05:33:02;17.80;99.90
5972;DHT22;3012;49.944;8.454;2023-08-01T05:35:32;17.80;99.90
5972;DHT22;3012;49.944;8.454;2023-08-01T05:38:04;17.40;99.90
5972;DHT22;3012;49.944;8.454;2023-08-01T05:40:35;17.60;99.90
5972;DHT22;3012;49.944;8.454;2023-08-01T05:43:06;17.70;99.90
5972;DHT22;3012;49.944;8.454;2023-08-01T05:45:36;18.10;99.90
5972;DHT22;3012;49.944;8.454;2023-08-01T05:48:07;17.80;99.90
5972;DHT22;3012;49.944;8.454;2023-08-01T05:50:37;17.70;99.90
5972;DHT22;3012;49.944;8.454;2023-08-01T05:53:08;17.50;99.90
5972;DHT22;3012;49.944;8.454;2023-08-01T05:55:39;17.10;99.90
5972;DHT22;3012;49.944;8.454;2023-08-01T05:58:09;17.60;99.90
5972;DHT22;3012;49.944;8.454;2023-08-01T06:00:39;17.50;99.90
5972;DHT22;3012;49.944;8.454;2023-08-01T06:03:10;17.50;99.90
5972;DHT22;3012;49.944;8.454;2023-08-01T06:05:40;17.50;99.90
5972;DHT22;3012;49.944;8.454;2023-08-01T06:08:12;17.40;99.90
5972;DHT22;3012;49.944;8.454;2023-08-01T06:10:43;17.20;99.90
5972;DHT22;3012;49.944;8.454;2023-08-01T06:13:13;17.20;99.90
5972;DHT22;3012;49.944;8.454;2023-08-01T06:15:43;17.50;99.90
5972;DHT22;3012;49.944;8.454;2023-08-01T06:18:13;17.10;99.90
5972;DHT22;3012;49.944;8.454;2023-08-01T06:20:44;17.40;99.90
5972;DHT22;3012;49.944;8.454;2023-08-01T06:23:15;17.00;99.90
5972;DHT22;3012;49.944;8.454;2023-08-01T06:25:45;17.40;99.90
5972;DHT22;3012;49.944;8.454;2023-08-01T06:28:16;17.40;99.90
5972;DHT22;3012;49.944;8.454;2023-08-01T06:30:47;17.40;99.90
5972;DHT22;3012;49.944;8.454;2023-08-01T06:33:17;17.50;99.90
5972;DHT22;3012;49.944;8.454;2023-08-01T06:35:47;17.50;99.90
5972;DHT22;3012;49.944;8.454;2023-08-01T06:38:19;17.50;99.90
5972;DHT22;3012;49.944;8.454;2023-08-01T06:40:49;18.00;99.90
5972;DHT22;3012;49.944;8.454;2023-08-01T06:43:19;17.80;99.90
5972;DHT22;3012;49.944;8.454;2023-08-01T06:45:50;17.20;99.90
5972;DHT22;3012;49.944;8.454;2023-08-01T06:48:21;17.60;99.90
5972;DHT22;3012;49.944;8.454;2023-08-01T06:50:54;17.90;99.90
5972;DHT22;3012;49.944;8.454;2023-08-01T06:53:28;17.60;99.90
5972;DHT22;3012;49.944;8.454;2023-08-01T06:55:58;17.80;99.90
5972;DHT22;3012;49.944;8.454;2023-08-01T06:58:28;17.60;99.90
5972;DHT22;3012;49.944;8.454;2023-08-01T07:00:58;17.70;99.90
5972;DHT22;3012;49.944;8.454;2023-08-01T07:03:31;17.60;99.90
5972;DHT22;3012;49.944;8.454;2023-08-01T07:06:03;17.70;99.90
5972;DHT22;3012;49.944;8.454;2023-08-01T07:08:39;17.90;99.90
5972;DHT22;3012;49.944;8.454;2023-08-01T07:11:11;17.60;99.90
5972;DHT22;3012;49.944;8.454;2023-08-01T07:13:45;17.90;99.90
5972;DHT22;3012;49.944;8.454;2023-08-01T07:16:16;18.00;99.90
5972;DHT22;3012;49.944;8.454;2023-08-01T07:18:48;18.10;99.90
5972;DHT22;3012;49.944;8.454;2023-08-01T07:21:19;18.30;99.90
5972;DHT22;3012;49.944;8.454;2023-08-01T07:23:50;17.50;99.90
5972;DHT22;3012;49.944;8.454;2023-08-01T07:26:21;18.10;99.90
5972;DHT22;3012;49.944;8.454;2023-08-01T07:28:54;18.10;99.90
5972;DHT22;3012;49.944;8.454;2023-08-01T07:31:27;17.70;99.90
5972;DHT22;3012;49.944;8.454;2023-08-01T07:34:00;17.70;99.90
5972;DHT22;3012;49.944;8.454;2023-08-01T07:36:31;18.10;99.90
5972;DHT22;3012;49.944;8.454;2023-08-01T07:39:05;18.10;99.90
5972;DHT22;3012;49.944;8.454;2023-08-01T07:41:38;18.10;99.90
5972;DHT22;3012;49.944;8.454;2023-08-01T07:44:11;18.20;99.90
5972;DHT22;3012;49.944;8.454;2023-08-01T07:46:43;18.20;99.90
5972;DHT22;3012;49.944;8.454;2023-08-01T07:49:17;18.20;99.90
5972;DHT22;3012;49.944;8.454;2023-08-01T07:51:49;18.20;99.90
5972;DHT22;3012;49.944;8.454;2023-08-01T07:54:23;18.30;99.90
5972;DHT22;3012;49.944;8.454;2023-08-01T07:56:56;18.30;99.90
5972;DHT22;3012;49.944;8.454;2023-08-01T07:59:29;18.50;99.90
5972;DHT22;3012;49.944;8.454;2023-08-01T08:02:02;18.90;99.90
5972;DHT22;3012;49.944;8.454;2023-08-01T08:04:35;19.00;99.90
5972;DHT22;3012;49.944;8.454;2023-08-01T08:07:06;19.20;99.90
5972;DHT22;3012;49.944;8.454;2023-08-01T08:09:40;19.50;99.90
5972;DHT22;3012;49.944;8.454;2023-08-01T08:12:14;19.70;99.90
5972;DHT22;3012;49.944;8.454;2023-08-01T08:14:43;19.60;99.90
5972;DHT22;3012;49.944;8.454;2023-08-01T08:17:14;19.80;99.90
5972;DHT22;3012;49.944;8.454;2023-08-01T08:19:45;20.00;99.90
5972;DHT22;3012;49.944;8.454;2023-08-01T08:22:15;20.40;99.90
5972;DHT22;3012;49.944;8.454;2023-08-01T08:24:48;20.50;99.90
5972;DHT22;3012;49.944;8.454;2023-08-01T08:27:18;20.10;99.90
5972;DHT22;3012;49.944;8.454;2023-08-01T08:29:48;20.50;99.90
5972;DHT22;3012;49.944;8.454;2023-08-01T08:32:19;20.50;99.90
5972;DHT22;3012;49.944;8.454;2023-08-01T08:34:49;20.30;99.90
5972;DHT22;3012;49.944;8.454;2023-08-01T08:37:20;20.40;99.90
5972;DHT22;3012;49.944;8.454;2023-08-01T08:39:52;20.60;99.90
5972;DHT22;3012;49.944;8.454;2023-08-01T08:42:22;20.90;99.90
5972;DHT22;3012;49.944;8.454;2023-08-01T08:44:55;20.80;99.90
5972;DHT22;3012;49.944;8.454;2023-08-01T08:47:25;20.90;99.90
5972;DHT22;3012;49.944;8.454;2023-08-01T08:49:57;20.90;99.90
5972;DHT22;3012;49.944;8.454;2023-08-01T08:52:28;20.90;99.90
5972;DHT22;3012;49.944;8.454;2023-08-01T08:55:01;20.90;99.90
5972;DHT22;3012;49.944;8.454;2023-08-01T08:57:32;20.90;99.90
5972;DHT22;3012;49.944;8.454;2023-08-01T09:00:04;20.80;99.90
5972;DHT22;3012;49.944;8.454;2023-08-01T09:02:34;21.20;99.90
5972;DHT22;3012;49.944;8.454;2023-08-01T09:05:04;21.20;99.90
5972;DHT22;3012;49.944;8.454;2023-08-01T09:07:39;20.90;99.90
5972;DHT22;3012;49.944;8.454;2023-08-01T09:10:13;20.60;99.90
5972;DHT22;3012;49.944;8.454;2023-08-01T09:12:43;20.80;99.90
5972;DHT22;3012;49.944;8.454;2023-08-01T09:15:13;21.40;99.90
5972;DHT22;3012;49.944;8.454;2023-08-01T09:17:50;21.10;99.90
5972;DHT22;3012;49.944;8.454;2023-08-01T09:20:20;21.10;99.90
5972;DHT22;3012;49.944;8.454;2023-08-01T09:22:50;21.40;99.90
5972;DHT22;3012;49.944;8.454;2023-08-01T09:25:31;21.60;99.90
5972;DHT22;3012;49.944;8.454;2023-08-01T09:28:01;21.70;99.90
5972;DHT22;3012;49.944;8.454;2023-08-01T09:30:31;21.60;99.90
5972;DHT22;3012;49.944;8.454;2023-08-01T09:33:02;21.50;99.90
5972;DHT22;3012;49.944;8.454;2023-08-01T09:35:38;21.20;99.90
5972;DHT22;3012;49.944;8.454;2023-08-01T09:38:09;20.80;99.90
5972;DHT22;3012;49.944;8.454;2023-08-01T09:40:42;20.70;99.90
5972;DHT22;3012;49.944;8.454;2023-08-01T09:43:12;21.20;99.90
5972;DHT22;3012;49.944;8.454;2023-08-01T09:45:52;21.10;99.90
5972;DHT22;3012;49.944;8.454;2023-08-01T09:48:26;21.40;99.90
5972;DHT22;3012;49.944;8.454;2023-08-01T09:51:09;21.70;99.90
5972;DHT22;3012;49.944;8.454;2023-08-01T09:53:47;22.00;99.90
5972;DHT22;3012;49.944;8.454;2023-08-01T09:56:21;22.30;99.90
5972;DHT22;3012;49.944;8.454;2023-08-01T09:58:52;22.00;99.90
5972;DHT22;3012;49.944;8.454;2023-08-01T10:01:24;21.70;99.90
5972;DHT22;3012;49.944;8.454;2023-08-01T10:03:57;21.40;99.90
5972;DHT22;3012;49.944;8.454;2023-08-01T10:06:30;21.20;99.90
5972;DHT22;3012;49.944;8.454;2023-08-01T10:09:02;21.10;99.90
5972;DHT22;3012;49.944;8.454;2023-08-01T10:11:34;21.10;99.90
5972;DHT22;3012;49.944;8.454;2023-08-01T10:14:06;21.70;99.90
5972;DHT22;3012;49.944;8.454;2023-08-01T10:16:36;21.60;99.90
5972;DHT22;3012;49.944;8.454;2023-08-01T10:19:09;21.80;99.90
5972;DHT22;3012;49.944;8.454;2023-08-01T10:21:41;22.10;99.90
5972;DHT22;3012;49.944;8.454;2023-08-01T10:24:13;22.30;99.90
5972;DHT22;3012;49.944;8.454;2023-08-01T10:26:47;22.40;99.90
5972;DHT22;3012;49.944;8.454;2023-08-01T10:29:17;22.50;99.90
5972;DHT22;3012;49.944;8.454;2023-08-01T10:31:54;22.50;99.90
5972;DHT22;3012;49.944;8.454;2023-08-01T10:34:24;22.30;99.90
5972;DHT22;3012;49.944;8.454;2023-08-01T10:36:54;21.90;99.90
5972;DHT22;3012;49.944;8.454;2023-08-01T10:39:25;21.30;99.90
5972;DHT22;3012;49.944;8.454;2023-08-01T10:42:02;21.40;99.90
5972;DHT22;3012;49.944;8.454;2023-08-01T10:44:33;21.40;99.90
5972;DHT22;3012;49.944;8.454;2023-08-01T10:47:05;21.00;99.90
5972;DHT22;3012;49.944;8.454;2023-08-01T10:49:37;21.00;99.90
5972;DHT22;3012;49.944;8.454;2023-08-01T10:52:17;21.50;99.90
5972;DHT22;3012;49.944;8.454;2023-08-01T10:54:47;21.80;99.90
5972;DHT22;3012;49.944;8.454;2023-08-01T10:57:19;22.20;99.90
5972;DHT22;3012;49.944;8.454;2023-08-01T10:59:50;22.50;99.90
5972;DHT22;3012;49.944;8.454;2023-08-01T11:02:21;22.50;99.90
5972;DHT22;3012;49.944;8.454;2023-08-01T11:04:59;22.50;99.90
5972;DHT22;3012;49.944;8.454;2023-08-01T11:07:31;22.60;99.90
5972;DHT22;3012;49.944;8.454;2023-08-01T11:10:04;22.90;99.90
5972;DHT22;3012;49.944;8.454;2023-08-01T11:12:38;23.00;99.90
5972;DHT22;3012;49.944;8.454;2023-08-01T11:15:10;23.40;99.90
5972;DHT22;3012;49.944;8.454;2023-08-01T11:17:42;23.40;99.90
5972;DHT22;3012;49.944;8.454;2023-08-01T11:20:13;23.60;99.90
5972;DHT22;3012;49.944;8.454;2023-08-01T11:22:51;23.60;99.10
5972;DHT22;3012;49.944;8.454;2023-08-01T11:25:32;23.70;97.90
5972;DHT22;3012;49.944;8.454;2023-08-01T11:28:10;23.80;98.50
5972;DHT22;3012;49.944;8.454;2023-08-01T11:30:41;23.90;97.20
5972;DHT22;3012;49.944;8.454;2023-08-01T11:33:15;24.00;98.30
5972;DHT22;3012;49.944;8.454;2023-08-01T11:35:49;24.00;97.30
5972;DHT22;3012;49.944;8.454;2023-08-01T11:38:20;24.00;95.80
5972;DHT22;3012;49.944;8.454;2023-08-01T11:40:52;24.00;95.30
5972;DHT22;3012;49.944;8.454;2023-08-01T11:43:24;23.80;95.40
5972;DHT22;3012;49.944;8.454;2023-08-01T11:45:56;23.50;95.60
5972;DHT22;3012;49.944;8.454;2023-08-01T11:48:27;23.50;95.20
5972;DHT22;3012;49.944;8.454;2023-08-01T11:50:59;23.60;96.20
5972;DHT22;3012;49.944;8.454;2023-08-01T11:53:30;23.80;95.20
5972;DHT22;3012;49.944;8.454;2023-08-01T11:56:06;23.90;95.50
5972;DHT22;3012;49.944;8.454;2023-08-01T11:58:42;23.90;93.50
5972;DHT22;3012;49.944;8.454;2023-08-01T12:01:13;23.90;93.50
5972;DHT22;3012;49.944;8.454;2023-08-01T12:03:45;24.20;92.70
5972;DHT22;3012;49.944;8.454;2023-08-01T12:06:19;24.80;92.40
5972;DHT22;3012;49.944;8.454;2023-08-01T12:08:51;25.20;87.90
5972;DHT22;3012;49.944;8.454;2023-08-01T12:11:22;25.70;90.10
5972;DHT22;3012;49.944;8.454;2023-08-01T12:14:06;25.80;86.40
5972;DHT22;3012;49.944;8.454;2023-08-01T12:16:38;25.80;85.80
5972;DHT22;3012;49.944;8.454;2023-08-01T12:19:09;25.70;82.10
5972;DHT22;3012;49.944;8.454;2023-08-01T12:21:39;25.30;79.20
5972;DHT22;3012;49.944;8.454;2023-08-01T12:24:10;24.90;77.90
5972;DHT22;3012;49.944;8.454;2023-08-01T12:26:41;24.70;79.60
5972;DHT22;3012;49.944;8.454;2023-08-01T12:29:13;24.90;80.00
5972;DHT22;3012;49.944;8.454;2023-08-01T12:31:44;24.90;81.00
5972;DHT22;3012;49.944;8.454;2023-08-01T12:34:15;24.70;78.20
5972;DHT22;3012;49.944;8.454;2023-08-01T12:36:45;24.70;80.50
5972;DHT22;3012;49.944;8.454;2023-08-01T12:39:15;24.60;79.90
5972;DHT22;3012;49.944;8.454;2023-08-01T12:41:45;24.20;82.10
5972;DHT22;3012;49.944;8.454;2023-08-01T12:44:17;24.20;81.40
5972;DHT22;3012;49.944;8.454;2023-08-01T12:46:47;24.00;79.70
5972;DHT22;3012;49.944;8.454;2023-08-01T12:49:18;23.70;80.40
5972;DHT22;3012;49.944;8.454;2023-08-01T12:51:48;23.40;81.90
5972;DHT22;3012;49.944;8.454;2023-08-01T12:54:20;23.30;82.80
5972;DHT22;3012;49.944;8.454;2023-08-01T12:56:51;23.40;84.60
5972;DHT22;3012;49.944;8.454;2023-08-01T12:59:23;23.70;85.80
5972;DHT22;3012;49.944;8.454;2023-08-01T13:01:53;23.70;83.60
5972;DHT22;3012;49.944;8.454;2023-08-01T13:04:23;23.70;81.90
5972;DHT22;3012;49.944;8.454;2023-08-01T13:06:53;23.90;83.60
5972;DHT22;3012;49.944;8.454;2023-08-01T13:09:24;24.20;83.00
5972;DHT22;3012;49.944;8.454;2023-08-01T13:11:54;24.70;82.30
5972;DHT22;3012;49.944;8.454;2023-08-01T13:14:27;24.90;78.70
5972;DHT22;3012;49.944;8.454;2023-08-01T13:16:57;25.10;79.40
5972;DHT22;3012;49.944;8.454;2023-08-01T13:19:27;25.10;79.30
5972;DHT22;3012;49.944;8.454;2023-08-01T13:21:57;24.90;83.00
5972;DHT22;3012;49.944;8.454;2023-08-01T13:24:28;24.90;83.90
5972;DHT22;3012;49.944;8.454;2023-08-01T13:26:58;24.70;79.70
5972;DHT22;3012;49.944;8.454;2023-08-01T13:29:30;24.40;80.50
5972;DHT22;3012;49.944;8.454;2023-08-01T13:32:00;24.30;81.90
5972;DHT22;3012;49.944;8.454;2023-08-01T13:34:30;24.00;79.40
5972;DHT22;3012;49.944;8.454;2023-08-01T13:37:02;24.20;81.10
5972;DHT22;3012;49.944;8.454;2023-08-01T13:39:33;25.10;80.90
5972;DHT22;3012;49.944;8.454;2023-08-01T13:42:03;25.40;78.10
5972;DHT22;3012;49.944;8.454;2023-08-01T13:44:34;25.20;79.40
5972;DHT22;3012;49.944;8.454;2023-08-01T13:47:05;24.90;80.10
5972;DHT22;3012;49.944;8.454;2023-08-01T13:49:35;24.60;78.90
5972;DHT22;3012;49.944;8.454;2023-08-01T13:52:05;24.00;87.10
5972;DHT22;3012;49.944;8.454;2023-08-01T13:54:35;23.60;93.20
5972;DHT22;3012;49.944;8.454;2023-08-01T13:57:06;23.30;94.70
5972;DHT22;3012;49.944;8.454;2023-08-01T13:59:38;23.00;96.40
5972;DHT22;3012;49.944;8.454;2023-08-01T14:02:08;22.70;96.40
5972;DHT22;3012;49.944;8.454;2023-08-01T14:04:38;22.20;97.70
5972;DHT22;3012;49.944;8.454;2023-08-01T14:07:08;21.30;99.90
5972;DHT22;3012;49.944;8.454;2023-08-01T14:09:39;20.60;99.90
5972;DHT22;3012;49.944;8.454;2023-08-01T14:12:12;20.40;99.90
5972;DHT22;3012;49.944;8.454;2023-08-01T14:14:46;19.80;99.90
5972;DHT22;3012;49.944;8.454;2023-08-01T14:17:17;19.40;99.90
5972;DHT22;3012;49.944;8.454;2023-08-01T14:19:49;19.70;99.90
5972;DHT22;3012;49.944;8.454;2023-08-01T14:22:21;19.70;99.90
5972;DHT22;3012;49.944;8.454;2023-08-01T14:24:53;19.80;99.90
5972;DHT22;3012;49.944;8.454;2023-08-01T14:27:25;19.90;99.90
5972;DHT22;3012;49.944;8.454;2023-08-01T14:29:57;19.70;99.90
5972;DHT22;3012;49.944;8.454;2023-08-01T14:32:27;20.10;99.90
5972;DHT22;3012;49.944;8.454;2023-08-01T14:34:57;19.70;99.90
5972;DHT22;3012;49.944;8.454;2023-08-01T14:37:28;19.80;99.90
5972;DHT22;3012;49.944;8.454;2023-08-01T14:39:59;19.80;99.90
5972;DHT22;3012;49.944;8.454;2023-08-01T14:42:29;19.60;99.90
5972;DHT22;3012;49.944;8.454;2023-08-01T14:45:02;19.70;99.90
5972;DHT22;3012;49.944;8.454;2023-08-01T14:47:35;19.70;99.90
5972;DHT22;3012;49.944;8.454;2023-08-01T14:50:10;19.90;99.90
5972;DHT22;3012;49.944;8.454;2023-08-01T14:52:42;20.00;99.90
5972;DHT22;3012;49.944;8.454;2023-08-01T14:55:14;20.90;99.90
5972;DHT22;3012;49.944;8.454;2023-08-01T14:57:45;21.30;99.90
5972;DHT22;3012;49.944;8.454;2023-08-01T15:00:21;21.40;99.90
5972;DHT22;3012;49.944;8.454;2023-08-01T15:02:53;21.50;99.90
5972;DHT22;3012;49.944;8.454;2023-08-01T15:05:25;21.50;99.90
5972;DHT22;3012;49.944;8.454;2023-08-01T15:07:56;21.40;99.90
5972;DHT22;3012;49.944;8.454;2023-08-01T15:10:28;21.30;99.90
5972;DHT22;3012;49.944;8.454;2023-08-01T15:12:58;21.30;99.90
5972;DHT22;3012;49.944;8.454;2023-08-01T15:15:35;21.20;99.90
5972;DHT22;3012;49.944;8.454;2023-08-01T15:18:07;21.10;99.90
5972;DHT22;3012;49.944;8.454;2023-08-01T15:20:38;21.00;99.90
5972;DHT22;3012;49.944;8.454;2023-08-01T15:23:11;20.90;99.90
5972;DHT22;3012;49.944;8.454;2023-08-01T15:25:50;20.80;99.90
5972;DHT22;3012;49.944;8.454;2023-08-01T15:28:20;20.60;99.90
5972;DHT22;3012;49.944;8.454;2023-08-01T15:31:02;20.60;99.90
5972;DHT22;3012;49.944;8.454;2023-08-01T15:33:34;20.40;99.90
5972;DHT22;3012;49.944;8.454;2023-08-01T15:36:06;20.40;99.90
5972;DHT22;3012;49.944;8.454;2023-08-01T15:38:37;20.40;99.90
5972;DHT22;3012;49.944;8.454;2023-08-01T15:41:08;19.40;99.90
5972;DHT22;3012;49.944;8.454;2023-08-01T15:43:39;19.90;99.90
5972;DHT22;3012;49.944;8.454;2023-08-01T15:46:11;19.70;99.90
5972;DHT22;3012;49.944;8.454;2023-08-01T15:48:42;19.70;99.90
5972;DHT22;3012;49.944;8.454;2023-08-01T15:51:12;19.90;99.90
5972;DHT22;3012;49.944;8.454;2023-08-01T15:53:42;19.80;99.90
5972;DHT22;3012;49.944;8.454;2023-08-01T15:56:14;19.80;99.90
5972;DHT22;3012;49.944;8.454;2023-08-01T15:58:46;19.80;99.90
5972;DHT22;3012;49.944;8.454;2023-08-01T16:01:20;19.70;99.90
5972;DHT22;3012;49.944;8.454;2023-08-01T16:03:51;19.90;99.90
5972;DHT22;3012;49.944;8.454;2023-08-01T16:06:22;19.90;99.90
5972;DHT22;3012;49.944;8.454;2023-08-01T16:08:54;19.90;99.90
5972;DHT22;3012;49.944;8.454;2023-08-01T16:11:27;19.60;99.90
5972;DHT22;3012;49.944;8.454;2023-08-01T16:13:57;20.00;99.90
5972;DHT22;3012;49.944;8.454;2023-08-01T16:16:29;19.70;99.90
5972;DHT22;3012;49.944;8.454;2023-08-01T16:19:00;19.90;99.90
5972;DHT22;3012;49.944;8.454;2023-08-01T16:21:30;19.60;99.90
5972;DHT22;3012;49.944;8.454;2023-08-01T16:24:01;19.70;99.90
5972;DHT22;3012;49.944;8.454;2023-08-01T16:26:31;19.90;99.90
5972;DHT22;3012;49.944;8.454;2023-08-01T16:29:03;19.80;99.90